Entre Rios de Minas, Brazil
Current Conditions -  °F | °C
As of 11:00 AM on Friday 31 Oct 2014 (Local Time) from SBBQ Reporting Station
Broken Clouds Broken Clouds  
Wind Chill: 73°   Ceiling: 2100
Heat Index: 73°   Visibility: 6mi
Dew Point: 61°   Wind: 7mph
Humidity: 65%   Direction: 350°N
Pressure: 30.21"   Gusts: NA
Location:  20.67°S, 44.07°W
Report Text: SBBQ 311300Z 35006KT 9999 BKN021 23/16 Q1023
Loading
Personal Weather Stations






























Interactive Weather Map
Tropical Storm Tracking
New forecast layout! Learn more

10-Day Weather Forecast

Advertisements
Track Severe Weather on mobile